createdAt,value
2019-05-02T00:01:41.926Z,6.82
2019-05-02T00:04:20.013Z,6.77
2019-05-02T00:07:14.405Z,6.73
2019-05-02T00:09:50.381Z,6.65
2019-05-02T00:12:23.354Z,6.60
2019-05-02T00:15:01.709Z,6.53
2019-05-02T00:17:31.927Z,6.48
2019-05-02T00:20:08.485Z,6.39
2019-05-02T00:22:42.474Z,6.34
2019-05-02T00:25:17.162Z,6.30
2019-05-02T00:27:50.666Z,6.26
2019-05-02T00:30:24.360Z,6.21
2019-05-02T00:32:58.320Z,6.15
2019-05-02T00:35:32.292Z,6.03
2019-05-02T00:38:05.694Z,5.88
2019-05-02T00:40:38.636Z,5.83
2019-05-02T00:43:12.231Z,5.90
2019-05-02T00:45:46.095Z,6.01
2019-05-02T00:48:25.570Z,6.01
2019-05-02T00:50:59.261Z,5.94
2019-05-02T00:53:52.574Z,5.91
2019-05-02T00:56:25.651Z,5.89
2019-05-02T00:59:02.249Z,5.79
2019-05-02T01:01:52.912Z,5.75
2019-05-02T01:04:35.396Z,5.73
2019-05-02T01:07:09.796Z,5.71
2019-05-02T01:09:46.728Z,5.70
2019-05-02T01:12:26.179Z,5.71
2019-05-02T01:14:55.117Z,5.71
2019-05-02T01:17:30.871Z,5.76
2019-05-02T01:20:04.261Z,5.74
2019-05-02T01:22:37.190Z,5.69
2019-05-02T01:25:15.818Z,5.61
2019-05-02T01:28:12.725Z,5.54
2019-05-02T01:31:04.220Z,5.46
2019-05-02T01:33:43.627Z,5.37
2019-05-02T01:36:21.179Z,5.32
2019-05-02T01:38:54.809Z,5.21
2019-05-02T01:41:29.075Z,5.14
2019-05-02T01:44:03.225Z,5.08
2019-05-02T01:46:36.584Z,5.07
2019-05-02T01:49:10.036Z,5.05
2019-05-02T01:51:47.398Z,5.04
2019-05-02T01:54:18.049Z,5.02
2019-05-02T01:56:51.481Z,5.03
2019-05-02T01:59:29.101Z,5.01
2019-05-02T02:02:00.372Z,5.03
2019-05-02T02:04:33.698Z,5.01
2019-05-02T02:07:07.242Z,5.00
2019-05-02T02:09:43.974Z,5.00
2019-05-02T02:12:16.721Z,4.96
2019-05-02T02:14:53.627Z,4.96
2019-05-02T02:17:25.584Z,4.92
2019-05-02T02:20:00.959Z,4.90
2019-05-02T02:22:57.997Z,4.87
2019-05-02T02:25:44.897Z,4.83
2019-05-02T02:28:18.649Z,4.79
2019-05-02T02:30:58.039Z,4.74
2019-05-02T02:33:27.606Z,4.71
2019-05-02T02:36:01.210Z,4.69
2019-05-02T02:38:35.489Z,4.68
2019-05-02T02:41:13.104Z,4.71
2019-05-02T02:43:45.680Z,4.66
2019-05-02T02:46:30.706Z,4.62
2019-05-02T02:49:02.700Z,4.59
2019-05-02T02:51:36.067Z,4.60
2019-05-02T02:54:09.732Z,4.58
2019-05-02T02:56:43.578Z,4.57
2019-05-02T02:59:19.272Z,4.56
2019-05-02T03:01:51.392Z,4.56
2019-05-02T03:04:24.561Z,4.49
2019-05-02T03:06:58.368Z,4.44
2019-05-02T03:09:31.755Z,4.45
2019-05-02T03:12:22.842Z,4.41
2019-05-02T03:14:58.430Z,4.33
2019-05-02T03:17:32.271Z,4.29
2019-05-02T03:20:05.594Z,4.25
2019-05-02T03:22:41.987Z,4.20
2019-05-02T03:25:18.162Z,4.17
2019-05-02T03:27:49.387Z,4.11
2019-05-02T03:30:32.259Z,4.02
2019-05-02T03:33:06.760Z,3.99
2019-05-02T03:35:42.615Z,3.91
2019-05-02T03:38:08.762Z,3.85
2019-05-02T03:40:42.013Z,3.80
2019-05-02T03:43:19.061Z,3.75
2019-05-02T03:45:50.301Z,3.73
2019-05-02T03:48:25.598Z,3.73
2019-05-02T03:50:58.794Z,3.88
2019-05-02T03:53:32.431Z,4.04
2019-05-02T03:56:11.483Z,4.11
2019-05-02T03:58:48.706Z,4.14
2019-05-02T04:01:19.462Z,4.19
2019-05-02T04:03:53.305Z,4.20
2019-05-02T04:06:26.708Z,4.06
2019-05-02T04:09:02.062Z,3.99
2019-05-02T04:11:38.984Z,3.97
2019-05-02T04:14:15.923Z,3.92
2019-05-02T04:16:48.604Z,3.88
2019-05-02T04:19:21.605Z,3.86
2019-05-02T04:22:01.694Z,3.83
2019-05-02T04:24:31.345Z,3.85
2019-05-02T04:27:05.268Z,3.80
2019-05-02T04:29:39.440Z,3.82
2019-05-02T04:32:14.489Z,3.88
2019-05-02T04:34:55.761Z,3.87
2019-05-02T04:37:24.064Z,3.92
2019-05-02T04:40:01.338Z,3.98
2019-05-02T04:42:32.785Z,4.02
2019-05-02T04:45:24.312Z,4.08
2019-05-02T04:47:42.540Z,4.16
2019-05-02T04:50:18.776Z,4.18
2019-05-02T04:52:53.893Z,4.25
2019-05-02T04:55:32.324Z,4.34
2019-05-02T04:58:03.498Z,4.45
2019-05-02T05:00:39.191Z,4.59
2019-05-02T05:03:15.628Z,4.75
2019-05-02T05:05:48.381Z,4.90
2019-05-02T05:08:26.689Z,5.08
2019-05-02T05:10:59.737Z,5.23
2019-05-02T05:13:33.345Z,5.36
2019-05-02T05:16:08.645Z,5.44
2019-05-02T05:18:43.965Z,5.52
2019-05-02T05:21:19.045Z,5.61
2019-05-02T05:24:18.185Z,5.75
2019-05-02T05:26:55.447Z,5.85
2019-05-02T05:29:29.284Z,5.99
2019-05-02T05:32:07.387Z,6.15
2019-05-02T05:34:38.405Z,6.34
2019-05-02T05:37:13.563Z,6.92
2019-05-02T05:39:48.855Z,8.11
2019-05-02T05:42:30.207Z,8.89
2019-05-02T05:45:03.714Z,10.09
2019-05-02T05:47:34.961Z,10.82
2019-05-02T05:50:09.271Z,11.45
2019-05-02T05:52:42.721Z,12.23
2019-05-02T05:55:20.348Z,12.85
2019-05-02T05:57:59.493Z,12.94
2019-05-02T06:00:27.661Z,13.45
2019-05-02T06:03:11.534Z,13.96
2019-05-02T06:05:40.921Z,14.64
2019-05-02T06:08:18.293Z,15.20
2019-05-02T06:10:49.153Z,15.44
2019-05-02T06:13:23.329Z,16.06
2019-05-02T06:16:02.793Z,15.62
2019-05-02T06:18:36.323Z,15.97
2019-05-02T06:21:09.252Z,14.91
2019-05-02T06:23:45.191Z,16.13
2019-05-02T06:26:18.634Z,16.83
2019-05-02T06:28:52.681Z,15.68
2019-05-02T06:31:26.124Z,16.57
2019-05-02T06:34:02.206Z,16.70
2019-05-02T06:36:36.895Z,17.67
2019-05-02T06:39:12.179Z,18.21
2019-05-02T06:41:46.120Z,18.11
2019-05-02T06:44:23.828Z,18.33
2019-05-02T06:46:59.319Z,19.18
2019-05-02T06:49:31.718Z,19.54
2019-05-02T06:52:05.935Z,19.67
2019-05-02T06:54:39.389Z,19.55
2019-05-02T06:57:13.205Z,19.58
2019-05-02T06:59:50.068Z,20.11
2019-05-02T07:02:22.260Z,20.70
2019-05-02T07:04:56.718Z,21.30
2019-05-02T07:07:34.218Z,21.82
2019-05-02T07:10:08.105Z,21.27
2019-05-02T07:12:46.172Z,21.72
2019-05-02T07:15:40.343Z,22.22
2019-05-02T07:18:16.237Z,22.90
2019-05-02T07:20:52.445Z,23.43
2019-05-02T07:23:26.767Z,22.98
2019-05-02T07:26:00.955Z,23.73
2019-05-02T07:28:35.411Z,24.34
2019-05-02T07:31:12.142Z,24.09
2019-05-02T07:33:46.035Z,23.18
2019-05-02T07:36:20.592Z,23.65
2019-05-02T07:38:57.629Z,23.69
2019-05-02T07:41:30.399Z,22.99
2019-05-02T07:44:04.468Z,23.41
2019-05-02T07:46:50.962Z,24.68
2019-05-02T07:49:13.807Z,25.46
2019-05-02T07:51:52.394Z,25.36
2019-05-02T07:54:26.645Z,25.92
2019-05-02T07:57:02.448Z,25.43
2019-05-02T07:59:37.089Z,24.06
2019-05-02T08:02:11.731Z,25.69
2019-05-02T08:04:45.318Z,25.89
2019-05-02T08:07:21.257Z,25.70
2019-05-02T08:09:55.623Z,26.28
2019-05-02T08:12:29.245Z,26.71
2019-05-02T08:15:07.494Z,26.64
2019-05-02T08:17:41.605Z,26.99
2019-05-02T08:20:19.169Z,27.16
2019-05-02T08:22:54.172Z,26.93
2019-05-02T08:25:28.370Z,27.11
2019-05-02T08:28:10.185Z,27.69
2019-05-02T08:30:46.168Z,27.10
2019-05-02T08:33:21.658Z,28.26
2019-05-02T08:35:55.707Z,25.33
2019-05-02T08:38:29.481Z,25.70
2019-05-02T08:41:04.363Z,27.41
2019-05-02T08:43:44.683Z,27.95
2019-05-02T08:46:17.004Z,28.94
2019-05-02T08:48:52.773Z,27.97
2019-05-02T08:51:27.306Z,28.13
2019-05-02T08:54:01.610Z,28.35
2019-05-02T08:56:36.167Z,28.70
2019-05-02T08:59:10.779Z,29.36
2019-05-02T09:01:44.724Z,29.09
2019-05-02T09:04:18.980Z,29.03
2019-05-02T09:06:58.912Z,29.59
2019-05-02T09:09:29.623Z,29.87
2019-05-02T09:12:12.296Z,29.54
2019-05-02T09:14:42.608Z,28.08
2019-05-02T09:17:16.785Z,26.05
2019-05-02T09:20:02.180Z,27.67
2019-05-02T09:22:30.138Z,28.97
2019-05-02T09:25:04.552Z,29.63
2019-05-02T09:27:39.110Z,27.24
2019-05-02T09:30:17.098Z,26.39
2019-05-02T09:32:52.173Z,27.84
2019-05-02T09:35:26.897Z,28.20
2019-05-02T09:38:01.736Z,29.21
2019-05-02T09:40:36.563Z,30.06
2019-05-02T09:43:12.184Z,29.94
2019-05-02T09:45:48.788Z,30.21
2019-05-02T09:48:26.649Z,30.56
2019-05-02T09:50:58.416Z,30.90
2019-05-02T09:53:35.281Z,30.82
2019-05-02T09:56:09.241Z,31.34
2019-05-02T09:58:45.428Z,31.99
2019-05-02T10:01:38.505Z,31.82
2019-05-02T10:04:12.939Z,30.48
2019-05-02T10:06:46.774Z,30.02
2019-05-02T10:09:24.095Z,30.56
2019-05-02T10:11:55.897Z,29.42
2019-05-02T10:14:32.975Z,29.88
2019-05-02T10:17:07.414Z,30.16
2019-05-02T10:19:48.811Z,30.38
2019-05-02T10:22:16.641Z,30.64
2019-05-02T10:24:52.025Z,29.51
2019-05-02T10:27:26.895Z,28.34
2019-05-02T10:30:08.459Z,24.96
2019-05-02T10:32:37.554Z,27.21
2019-05-02T10:35:12.997Z,29.02
2019-05-02T10:37:47.303Z,29.82
2019-05-02T10:40:22.559Z,28.39
2019-05-02T10:43:07.210Z,28.73
2019-05-02T10:45:47.474Z,28.93
2019-05-02T10:48:27.410Z,27.80
2019-05-02T10:50:55.768Z,26.07
2019-05-02T10:53:32.140Z,27.66
2019-05-02T10:56:06.001Z,28.76
2019-05-02T10:58:42.551Z,25.83
2019-05-02T11:01:17.579Z,27.13
2019-05-02T11:03:52.702Z,28.01
2019-05-02T11:06:28.153Z,26.18
2019-05-02T11:09:02.843Z,25.41
2019-05-02T11:11:39.395Z,27.15
2019-05-02T11:14:36.149Z,28.03
2019-05-02T11:17:22.666Z,27.69
2019-05-02T11:20:02.607Z,25.00
2019-05-02T11:22:38.312Z,26.30
2019-05-02T11:25:13.219Z,27.77
2019-05-02T11:27:47.367Z,28.79
2019-05-02T11:30:26.476Z,28.76
2019-05-02T11:33:00.126Z,28.43
2019-05-02T11:35:35.849Z,28.65
2019-05-02T11:38:11.323Z,28.49
2019-05-02T11:40:47.213Z,28.57
2019-05-02T11:43:22.334Z,29.14
2019-05-02T11:46:02.517Z,29.56
2019-05-02T11:48:32.366Z,29.66
2019-05-02T11:51:07.300Z,29.32
2019-05-02T11:53:44.477Z,28.18
2019-05-02T11:56:18.473Z,24.09
2019-05-02T11:58:52.888Z,24.38
2019-05-02T12:01:35.783Z,25.34
2019-05-02T12:04:07.625Z,26.55
2019-05-02T12:06:42.254Z,26.73
2019-05-02T12:09:17.527Z,24.82
2019-05-02T12:11:56.410Z,25.10
2019-05-02T12:14:32.855Z,24.57
2019-05-02T12:17:03.094Z,23.56
2019-05-02T12:19:37.094Z,25.15
2019-05-02T12:22:16.163Z,26.59
2019-05-02T12:24:47.465Z,26.50
2019-05-02T12:27:22.113Z,24.66
2019-05-02T12:29:59.250Z,22.25
2019-05-02T12:32:33.419Z,21.54
2019-05-02T12:35:09.447Z,21.60
2019-05-02T12:37:47.126Z,22.07
2019-05-02T12:40:18.881Z,22.59
2019-05-02T12:42:52.665Z,23.27
2019-05-02T12:45:26.835Z,23.33
2019-05-02T12:48:02.203Z,23.86
2019-05-02T12:50:35.359Z,23.68
2019-05-02T12:53:09.325Z,23.13
2019-05-02T12:55:43.313Z,23.29
2019-05-02T12:58:18.327Z,24.33
2019-05-02T13:00:53.187Z,24.67
2019-05-02T13:03:44.198Z,24.61
2019-05-02T13:06:18.291Z,24.37
2019-05-02T13:08:52.675Z,23.72
2019-05-02T13:11:42.186Z,23.16
2019-05-02T13:14:18.896Z,23.90
2019-05-02T13:16:53.640Z,22.78
2019-05-02T13:19:37.125Z,23.73
2019-05-02T13:22:32.378Z,23.46
2019-05-02T13:25:12.941Z,22.89
2019-05-02T13:27:48.296Z,22.22
2019-05-02T13:30:43.043Z,21.13
2019-05-02T13:33:12.319Z,22.00
2019-05-02T13:35:51.920Z,23.31
2019-05-02T13:38:27.267Z,22.80
2019-05-02T13:41:02.720Z,22.40
2019-05-02T13:43:44.359Z,22.82
2019-05-02T13:46:23.112Z,23.13
2019-05-02T13:48:57.700Z,21.84
2019-05-02T13:51:32.077Z,21.29
2019-05-02T13:54:06.923Z,21.07
2019-05-02T13:56:52.893Z,21.84
2019-05-02T13:59:27.215Z,20.88
2019-05-02T14:02:02.826Z,20.70
2019-05-02T14:04:37.510Z,20.69
2019-05-02T14:07:17.272Z,21.02
2019-05-02T14:09:58.073Z,21.33
2019-05-02T14:12:45.887Z,21.26
2019-05-02T14:15:22.603Z,21.83
2019-05-02T14:17:55.974Z,21.89
2019-05-02T14:20:32.877Z,21.89
2019-05-02T14:23:06.665Z,21.39
2019-05-02T14:25:42.607Z,21.22
2019-05-02T14:28:17.101Z,20.89
2019-05-02T14:30:52.555Z,21.28
2019-05-02T14:33:28.473Z,21.54
2019-05-02T14:36:06.272Z,21.85
2019-05-02T14:38:41.586Z,21.47
2019-05-02T14:41:38.943Z,20.97
2019-05-02T14:44:06.058Z,20.64
2019-05-02T14:46:42.556Z,20.74
2019-05-02T14:49:22.042Z,20.51
2019-05-02T14:51:57.181Z,20.66
2019-05-02T14:54:28.725Z,19.91
2019-05-02T14:57:11.895Z,19.77
2019-05-02T14:59:50.300Z,19.94
2019-05-02T15:02:51.761Z,20.13
2019-05-02T15:05:29.479Z,20.01
2019-05-02T15:08:06.675Z,20.18
2019-05-02T15:10:49.494Z,19.99
2019-05-02T15:13:14.911Z,19.66
2019-05-02T15:15:52.905Z,19.63
2019-05-02T15:18:28.253Z,19.34
2019-05-02T15:21:03.892Z,19.30
2019-05-02T15:23:38.431Z,19.33
2019-05-02T15:26:14.122Z,19.32
2019-05-02T15:28:51.941Z,19.25
2019-05-02T15:31:33.774Z,19.14
2019-05-02T15:34:26.576Z,19.21
2019-05-02T15:37:02.773Z,19.21
2019-05-02T15:42:13.355Z,19.33
2019-05-02T15:44:56.910Z,19.08
2019-05-02T15:47:29.733Z,19.06
2019-05-02T15:50:06.935Z,18.92
2019-05-02T15:52:44.335Z,18.95
2019-05-02T15:55:21.921Z,18.81
2019-05-02T15:57:56.281Z,18.78
2019-05-02T16:00:33.985Z,18.68
2019-05-02T16:03:07.804Z,18.76
2019-05-02T16:05:45.076Z,18.90
2019-05-02T16:08:18.755Z,18.96
2019-05-02T16:10:53.659Z,18.70
2019-05-02T16:13:29.021Z,18.78
2019-05-02T16:16:05.462Z,18.70
2019-05-02T16:18:41.101Z,18.73
2019-05-02T16:21:29.100Z,18.59
2019-05-02T16:24:16.820Z,18.59
2019-05-02T16:26:56.334Z,18.66
2019-05-02T16:29:29.228Z,18.53
2019-05-02T16:32:22.189Z,18.66
2019-05-02T16:35:02.800Z,18.57
2019-05-02T16:37:35.727Z,18.64
2019-05-02T16:40:12.778Z,18.37
2019-05-02T16:42:55.856Z,18.28
2019-05-02T16:45:39.278Z,18.29
2019-05-02T16:48:17.993Z,18.11
2019-05-02T16:50:59.343Z,17.84
2019-05-02T16:53:34.168Z,17.72
2019-05-02T16:56:11.469Z,17.59
2019-05-02T16:58:47.209Z,17.55
2019-05-02T17:01:27.117Z,17.51
2019-05-02T17:03:57.745Z,17.57
2019-05-02T17:06:33.787Z,17.61
2019-05-02T17:09:38.695Z,17.68
2019-05-02T17:12:11.868Z,17.66
2019-05-02T17:15:07.691Z,17.79
2019-05-02T17:17:42.361Z,17.65
2019-05-02T17:20:17.498Z,17.65
2019-05-02T17:23:01.956Z,17.64
2019-05-02T17:25:29.784Z,17.49
2019-05-02T17:28:08.399Z,17.49
2019-05-02T17:30:42.519Z,17.39
2019-05-02T17:33:16.438Z,17.22
2019-05-02T17:35:52.287Z,17.08
2019-05-02T17:38:29.233Z,16.93
2019-05-02T17:41:11.877Z,16.84
2019-05-02T17:43:43.692Z,16.72
2019-05-02T17:46:21.057Z,16.65
2019-05-02T17:48:54.757Z,16.51
2019-05-02T17:51:38.533Z,16.47
2019-05-02T17:54:17.570Z,16.42
2019-05-02T17:56:52.227Z,16.35
2019-05-02T17:59:28.239Z,16.28
2019-05-02T18:02:06.747Z,16.06
2019-05-02T18:04:41.912Z,15.94
2019-05-02T18:07:18.043Z,15.92
2019-05-02T18:09:52.396Z,15.88
2019-05-02T18:12:28.146Z,15.83
2019-05-02T18:15:03.309Z,15.59
2019-05-02T18:17:38.565Z,15.62
2019-05-02T18:20:12.565Z,15.39
2019-05-02T18:22:49.062Z,15.18
2019-05-02T18:25:26.285Z,15.09
2019-05-02T18:28:05.336Z,15.03
2019-05-02T18:30:41.598Z,14.83
2019-05-02T18:33:17.355Z,14.66
2019-05-02T18:35:53.083Z,14.76
2019-05-02T18:38:52.384Z,14.81
2019-05-02T18:41:26.973Z,14.72
2019-05-02T18:44:02.808Z,14.91
2019-05-02T18:46:41.595Z,14.81
2019-05-02T18:49:21.889Z,14.55
2019-05-02T18:51:57.570Z,14.55
2019-05-02T18:54:33.674Z,14.61
2019-05-02T18:57:09.733Z,14.45
2019-05-02T18:59:51.958Z,14.32
2019-05-02T19:02:35.389Z,14.11
2019-05-02T19:05:18.678Z,14.01
2019-05-02T19:07:47.420Z,13.94
2019-05-02T19:10:26.663Z,13.80
2019-05-02T19:13:04.436Z,13.78
2019-05-02T19:15:45.451Z,13.80
2019-05-02T19:18:20.849Z,13.69
2019-05-02T19:21:05.738Z,13.61
2019-05-02T19:23:42.524Z,13.78
2019-05-02T19:26:18.792Z,13.85
2019-05-02T19:29:21.569Z,13.86
2019-05-02T19:31:57.591Z,13.86
2019-05-02T19:34:37.058Z,13.68
2019-05-02T19:37:12.698Z,13.62
2019-05-02T19:39:49.009Z,13.47
2019-05-02T19:42:26.383Z,13.31
2019-05-02T19:45:11.199Z,13.12
2019-05-02T19:47:38.230Z,13.09
2019-05-02T19:50:43.943Z,13.17
2019-05-02T19:53:18.249Z,13.22
2019-05-02T19:55:57.173Z,13.28
2019-05-02T19:58:32.004Z,13.36
2019-05-02T20:01:12.661Z,13.47
2019-05-02T20:03:48.847Z,13.46
2019-05-02T20:06:25.474Z,13.37
2019-05-02T20:09:04.798Z,13.38
2019-05-02T20:11:38.900Z,13.35
2019-05-02T20:14:14.027Z,13.36
2019-05-02T20:16:53.048Z,13.33
2019-05-02T20:19:29.333Z,13.21
2019-05-02T20:22:14.739Z,13.09
2019-05-02T20:25:00.366Z,13.00
2019-05-02T20:27:33.130Z,12.99
2019-05-02T20:30:09.349Z,12.91
2019-05-02T20:32:44.528Z,13.01
2019-05-02T20:35:19.278Z,12.93
2019-05-02T20:37:58.560Z,12.97
2019-05-02T20:40:36.296Z,12.89
2019-05-02T20:43:12.150Z,12.82
2019-05-02T20:45:47.211Z,12.76
2019-05-02T20:48:22.801Z,12.69
2019-05-02T20:50:58.278Z,12.60
2019-05-02T20:53:37.902Z,12.56
2019-05-02T20:56:13.707Z,12.63
2019-05-02T20:58:52.480Z,12.68
2019-05-02T21:01:27.383Z,12.62
2019-05-02T21:04:04.755Z,12.62
2019-05-02T21:07:03.623Z,12.65
2019-05-02T21:09:52.824Z,12.67
2019-05-02T21:12:28.060Z,12.63
2019-05-02T21:15:05.863Z,12.53
2019-05-02T21:17:43.735Z,12.50
2019-05-02T21:20:19.370Z,12.49
2019-05-02T21:22:54.975Z,12.50
2019-05-02T21:25:30.017Z,12.42
2019-05-02T21:28:05.145Z,12.43
2019-05-02T21:30:41.599Z,12.47
2019-05-02T21:33:42.752Z,12.31
2019-05-02T21:36:17.705Z,12.19
2019-05-02T21:38:52.091Z,12.16
2019-05-02T21:41:26.039Z,12.15
2019-05-02T21:43:59.771Z,12.08
2019-05-02T21:46:36.061Z,12.05
2019-05-02T21:49:12.032Z,11.99
2019-05-02T21:51:55.203Z,11.90
2019-05-02T21:54:40.864Z,11.85
2019-05-02T21:57:19.355Z,11.78
2019-05-02T21:59:53.176Z,11.76
2019-05-02T22:02:30.206Z,11.80
2019-05-02T22:05:04.403Z,11.80
2019-05-02T22:07:38.685Z,11.69
2019-05-02T22:10:32.115Z,11.69
2019-05-02T22:13:06.745Z,11.82
2019-05-02T22:15:42.049Z,11.80
2019-05-02T22:18:17.495Z,11.76
2019-05-02T22:20:52.400Z,11.75
2019-05-02T22:23:26.384Z,11.60
2019-05-02T22:26:02.092Z,11.47
2019-05-02T22:28:40.380Z,11.30
2019-05-02T22:31:14.958Z,11.28
2019-05-02T22:33:49.327Z,11.30
2019-05-02T22:36:27.218Z,11.32
2019-05-02T22:39:22.062Z,11.43
2019-05-02T22:41:56.442Z,11.51
2019-05-02T22:44:30.105Z,11.50
2019-05-02T22:47:04.070Z,11.54
2019-05-02T22:49:38.101Z,11.62
2019-05-02T22:52:14.384Z,11.70
2019-05-02T22:54:48.787Z,11.82
2019-05-02T22:57:22.682Z,11.80
2019-05-02T22:59:57.302Z,11.69
2019-05-02T23:02:32.469Z,11.54
2019-05-02T23:05:07.192Z,11.46
2019-05-02T23:07:41.910Z,11.39
2019-05-02T23:10:22.083Z,11.36
2019-05-02T23:12:56.323Z,11.27
2019-05-02T23:15:32.125Z,11.29
2019-05-02T23:18:06.095Z,11.33
2019-05-02T23:20:42.124Z,11.41
2019-05-02T23:23:16.694Z,11.62
2019-05-02T23:26:18.673Z,11.63
2019-05-02T23:28:53.305Z,11.60
2019-05-02T23:31:26.681Z,11.59
2019-05-02T23:34:01.863Z,11.55
2019-05-02T23:36:35.662Z,11.65
2019-05-02T23:39:12.514Z,11.77
2019-05-02T23:41:46.613Z,11.92
2019-05-02T23:44:22.701Z,11.99
2019-05-02T23:46:56.301Z,12.01
2019-05-02T23:49:32.345Z,12.05
2019-05-02T23:52:08.746Z,11.95
2019-05-02T23:54:51.541Z,11.96
2019-05-02T23:57:19.712Z,11.93
2019-05-02T23:59:53.840Z,11.99
